sensor_id;sensor_type;location;lat;lon;timestamp;P1;durP1;ratioP1;P2;durP2;ratioP2
22314;SDS011;11325;55.686;37.566;2024-02-16T00:00:15;28.87;;;7.58;;
22314;SDS011;11325;55.686;37.566;2024-02-16T00:02:44;16.37;;;8.00;;
22314;SDS011;11325;55.686;37.566;2024-02-16T00:05:14;19.15;;;7.15;;
22314;SDS011;11325;55.686;37.566;2024-02-16T00:07:43;16.20;;;7.47;;
22314;SDS011;11325;55.686;37.566;2024-02-16T00:10:11;21.45;;;7.60;;
22314;SDS011;11325;55.686;37.566;2024-02-16T00:12:41;17.48;;;8.33;;
22314;SDS011;11325;55.686;37.566;2024-02-16T00:15:09;19.57;;;7.50;;
22314;SDS011;11325;55.686;37.566;2024-02-16T00:17:38;21.12;;;8.18;;
22314;SDS011;11325;55.686;37.566;2024-02-16T00:20:07;19.48;;;7.85;;
22314;SDS011;11325;55.686;37.566;2024-02-16T00:22:36;15.13;;;6.85;;
22314;SDS011;11325;55.686;37.566;2024-02-16T00:25:06;17.17;;;6.83;;
22314;SDS011;11325;55.686;37.566;2024-02-16T00:27:35;18.50;;;7.28;;
22314;SDS011;11325;55.686;37.566;2024-02-16T00:30:04;20.32;;;8.53;;
22314;SDS011;11325;55.686;37.566;2024-02-16T00:32:33;15.08;;;7.33;;
22314;SDS011;11325;55.686;37.566;2024-02-16T00:35:03;17.77;;;8.08;;
22314;SDS011;11325;55.686;37.566;2024-02-16T00:37:31;16.90;;;8.08;;
22314;SDS011;11325;55.686;37.566;2024-02-16T00:40:00;17.48;;;7.83;;
22314;SDS011;11325;55.686;37.566;2024-02-16T00:42:29;16.40;;;6.78;;
22314;SDS011;11325;55.686;37.566;2024-02-16T00:44:58;24.30;;;7.87;;
22314;SDS011;11325;55.686;37.566;2024-02-16T00:47:31;24.40;;;7.35;;
22314;SDS011;11325;55.686;37.566;2024-02-16T00:49:59;18.70;;;7.60;;
22314;SDS011;11325;55.686;37.566;2024-02-16T00:52:28;18.60;;;8.20;;
22314;SDS011;11325;55.686;37.566;2024-02-16T00:54:57;19.70;;;6.97;;
22314;SDS011;11325;55.686;37.566;2024-02-16T00:57:25;13.32;;;6.42;;
22314;SDS011;11325;55.686;37.566;2024-02-16T00:59:54;13.35;;;6.00;;
22314;SDS011;11325;55.686;37.566;2024-02-16T01:02:23;14.23;;;6.58;;
22314;SDS011;11325;55.686;37.566;2024-02-16T01:04:52;15.50;;;6.10;;
22314;SDS011;11325;55.686;37.566;2024-02-16T01:07:22;19.70;;;8.00;;
22314;SDS011;11325;55.686;37.566;2024-02-16T01:09:51;13.62;;;7.40;;
22314;SDS011;11325;55.686;37.566;2024-02-16T01:12:20;18.07;;;6.60;;
22314;SDS011;11325;55.686;37.566;2024-02-16T01:14:49;20.70;;;8.45;;
22314;SDS011;11325;55.686;37.566;2024-02-16T01:17:18;21.30;;;7.50;;
22314;SDS011;11325;55.686;37.566;2024-02-16T01:19:47;17.15;;;7.10;;
22314;SDS011;11325;55.686;37.566;2024-02-16T01:22:16;18.77;;;7.40;;
22314;SDS011;11325;55.686;37.566;2024-02-16T01:24:46;17.12;;;7.67;;
22314;SDS011;11325;55.686;37.566;2024-02-16T01:27:16;12.05;;;5.92;;
22314;SDS011;11325;55.686;37.566;2024-02-16T01:29:45;19.48;;;6.87;;
22314;SDS011;11325;55.686;37.566;2024-02-16T01:32:14;16.73;;;8.15;;
22314;SDS011;11325;55.686;37.566;2024-02-16T01:34:43;20.10;;;7.40;;
22314;SDS011;11325;55.686;37.566;2024-02-16T01:37:13;20.82;;;7.17;;
22314;SDS011;11325;55.686;37.566;2024-02-16T01:39:42;23.07;;;7.95;;
22314;SDS011;11325;55.686;37.566;2024-02-16T01:42:11;19.37;;;7.70;;
22314;SDS011;11325;55.686;37.566;2024-02-16T01:44:40;16.55;;;7.85;;
22314;SDS011;11325;55.686;37.566;2024-02-16T01:47:09;18.45;;;7.08;;
22314;SDS011;11325;55.686;37.566;2024-02-16T01:49:38;21.75;;;7.67;;
22314;SDS011;11325;55.686;37.566;2024-02-16T01:52:06;17.32;;;8.18;;
22314;SDS011;11325;55.686;37.566;2024-02-16T01:54:36;15.25;;;7.67;;
22314;SDS011;11325;55.686;37.566;2024-02-16T01:57:05;48.85;;;7.97;;
22314;SDS011;11325;55.686;37.566;2024-02-16T01:59:35;18.98;;;7.10;;
22314;SDS011;11325;55.686;37.566;2024-02-16T02:02:05;13.80;;;7.15;;
22314;SDS011;11325;55.686;37.566;2024-02-16T02:04:35;19.00;;;7.53;;
22314;SDS011;11325;55.686;37.566;2024-02-16T02:07:14;18.60;;;6.75;;
22314;SDS011;11325;55.686;37.566;2024-02-16T02:09:43;24.85;;;8.23;;
22314;SDS011;11325;55.686;37.566;2024-02-16T02:12:12;23.83;;;8.50;;
22314;SDS011;11325;55.686;37.566;2024-02-16T02:14:41;18.45;;;8.08;;
22314;SDS011;11325;55.686;37.566;2024-02-16T02:17:10;16.77;;;7.78;;
22314;SDS011;11325;55.686;37.566;2024-02-16T02:19:40;18.25;;;7.70;;
22314;SDS011;11325;55.686;37.566;2024-02-16T02:22:18;21.30;;;7.05;;
22314;SDS011;11325;55.686;37.566;2024-02-16T02:24:42;16.25;;;7.33;;
22314;SDS011;11325;55.686;37.566;2024-02-16T02:27:12;17.45;;;7.80;;
22314;SDS011;11325;55.686;37.566;2024-02-16T02:29:41;17.98;;;7.72;;
22314;SDS011;11325;55.686;37.566;2024-02-16T02:32:10;16.55;;;7.55;;
22314;SDS011;11325;55.686;37.566;2024-02-16T02:34:41;17.90;;;7.87;;
22314;SDS011;11325;55.686;37.566;2024-02-16T02:37:09;17.20;;;7.25;;
22314;SDS011;11325;55.686;37.566;2024-02-16T02:39:38;17.20;;;7.33;;
22314;SDS011;11325;55.686;37.566;2024-02-16T02:42:07;23.22;;;8.60;;
22314;SDS011;11325;55.686;37.566;2024-02-16T02:44:37;20.25;;;6.75;;
22314;SDS011;11325;55.686;37.566;2024-02-16T02:47:06;22.22;;;8.50;;
22314;SDS011;11325;55.686;37.566;2024-02-16T02:49:35;25.23;;;8.78;;
22314;SDS011;11325;55.686;37.566;2024-02-16T02:52:04;24.18;;;8.30;;
22314;SDS011;11325;55.686;37.566;2024-02-16T02:54:34;17.62;;;8.33;;
22314;SDS011;11325;55.686;37.566;2024-02-16T02:57:03;17.85;;;7.92;;
22314;SDS011;11325;55.686;37.566;2024-02-16T02:59:32;19.10;;;8.75;;
22314;SDS011;11325;55.686;37.566;2024-02-16T03:02:01;20.35;;;7.25;;
22314;SDS011;11325;55.686;37.566;2024-02-16T03:04:30;20.50;;;8.13;;
22314;SDS011;11325;55.686;37.566;2024-02-16T03:06:59;21.52;;;7.80;;
22314;SDS011;11325;55.686;37.566;2024-02-16T03:09:28;15.60;;;6.85;;
22314;SDS011;11325;55.686;37.566;2024-02-16T03:11:57;20.85;;;8.45;;
22314;SDS011;11325;55.686;37.566;2024-02-16T03:14:26;23.55;;;7.92;;
22314;SDS011;11325;55.686;37.566;2024-02-16T03:16:55;19.55;;;7.47;;
22314;SDS011;11325;55.686;37.566;2024-02-16T03:19:24;17.23;;;8.20;;
22314;SDS011;11325;55.686;37.566;2024-02-16T03:21:52;23.32;;;8.90;;
22314;SDS011;11325;55.686;37.566;2024-02-16T03:24:21;15.45;;;7.67;;
22314;SDS011;11325;55.686;37.566;2024-02-16T03:26:50;21.25;;;7.37;;
22314;SDS011;11325;55.686;37.566;2024-02-16T03:29:19;16.82;;;7.58;;
22314;SDS011;11325;55.686;37.566;2024-02-16T03:31:49;22.35;;;8.53;;
22314;SDS011;11325;55.686;37.566;2024-02-16T03:34:19;20.17;;;7.65;;
22314;SDS011;11325;55.686;37.566;2024-02-16T03:36:47;16.20;;;6.92;;
22314;SDS011;11325;55.686;37.566;2024-02-16T03:39:16;22.73;;;8.00;;
22314;SDS011;11325;55.686;37.566;2024-02-16T03:41:47;20.43;;;7.60;;
22314;SDS011;11325;55.686;37.566;2024-02-16T03:44:16;19.65;;;8.83;;
22314;SDS011;11325;55.686;37.566;2024-02-16T03:46:44;26.10;;;9.13;;
22314;SDS011;11325;55.686;37.566;2024-02-16T03:49:13;15.98;;;7.15;;
22314;SDS011;11325;55.686;37.566;2024-02-16T03:51:42;32.45;;;9.25;;
22314;SDS011;11325;55.686;37.566;2024-02-16T03:54:11;22.22;;;9.58;;
22314;SDS011;11325;55.686;37.566;2024-02-16T03:56:40;27.22;;;9.43;;
22314;SDS011;11325;55.686;37.566;2024-02-16T03:59:08;22.00;;;8.38;;
22314;SDS011;11325;55.686;37.566;2024-02-16T04:01:38;31.33;;;9.80;;
22314;SDS011;11325;55.686;37.566;2024-02-16T04:04:07;14.28;;;7.67;;
22314;SDS011;11325;55.686;37.566;2024-02-16T04:06:35;17.35;;;8.78;;
22314;SDS011;11325;55.686;37.566;2024-02-16T04:09:04;23.42;;;9.23;;
22314;SDS011;11325;55.686;37.566;2024-02-16T04:11:36;24.47;;;8.53;;
22314;SDS011;11325;55.686;37.566;2024-02-16T04:14:05;19.70;;;9.50;;
22314;SDS011;11325;55.686;37.566;2024-02-16T04:16:36;19.60;;;8.75;;
22314;SDS011;11325;55.686;37.566;2024-02-16T04:19:05;18.57;;;8.50;;
22314;SDS011;11325;55.686;37.566;2024-02-16T04:21:33;28.20;;;9.30;;
22314;SDS011;11325;55.686;37.566;2024-02-16T04:24:03;25.00;;;9.38;;
22314;SDS011;11325;55.686;37.566;2024-02-16T04:26:31;21.00;;;9.00;;
22314;SDS011;11325;55.686;37.566;2024-02-16T04:29:00;21.25;;;7.33;;
22314;SDS011;11325;55.686;37.566;2024-02-16T04:31:30;30.52;;;9.33;;
22314;SDS011;11325;55.686;37.566;2024-02-16T04:33:59;22.55;;;10.35;;
22314;SDS011;11325;55.686;37.566;2024-02-16T04:36:27;27.27;;;8.78;;
22314;SDS011;11325;55.686;37.566;2024-02-16T04:38:56;17.25;;;8.28;;
22314;SDS011;11325;55.686;37.566;2024-02-16T04:41:24;17.67;;;8.45;;
22314;SDS011;11325;55.686;37.566;2024-02-16T04:43:53;22.35;;;8.63;;
22314;SDS011;11325;55.686;37.566;2024-02-16T04:46:22;21.27;;;8.45;;
22314;SDS011;11325;55.686;37.566;2024-02-16T04:48:51;22.58;;;9.78;;
22314;SDS011;11325;55.686;37.566;2024-02-16T04:51:20;23.73;;;9.03;;
22314;SDS011;11325;55.686;37.566;2024-02-16T04:53:48;18.65;;;7.67;;
22314;SDS011;11325;55.686;37.566;2024-02-16T04:56:17;24.92;;;9.15;;
22314;SDS011;11325;55.686;37.566;2024-02-16T04:58:46;20.20;;;8.85;;
22314;SDS011;11325;55.686;37.566;2024-02-16T05:01:15;17.77;;;8.70;;
22314;SDS011;11325;55.686;37.566;2024-02-16T05:03:44;24.50;;;9.25;;
22314;SDS011;11325;55.686;37.566;2024-02-16T05:06:13;18.23;;;8.63;;
22314;SDS011;11325;55.686;37.566;2024-02-16T05:08:43;21.23;;;8.98;;
22314;SDS011;11325;55.686;37.566;2024-02-16T05:11:12;18.87;;;8.55;;
22314;SDS011;11325;55.686;37.566;2024-02-16T05:13:40;21.75;;;8.78;;
22314;SDS011;11325;55.686;37.566;2024-02-16T05:16:12;24.12;;;9.30;;
22314;SDS011;11325;55.686;37.566;2024-02-16T05:18:41;19.23;;;8.90;;
22314;SDS011;11325;55.686;37.566;2024-02-16T05:21:09;21.55;;;9.23;;
22314;SDS011;11325;55.686;37.566;2024-02-16T05:23:38;14.47;;;8.03;;
22314;SDS011;11325;55.686;37.566;2024-02-16T05:26:08;25.97;;;9.00;;
22314;SDS011;11325;55.686;37.566;2024-02-16T05:28:37;20.43;;;8.28;;
22314;SDS011;11325;55.686;37.566;2024-02-16T05:31:17;16.45;;;7.87;;
22314;SDS011;11325;55.686;37.566;2024-02-16T05:33:37;16.07;;;7.83;;
22314;SDS011;11325;55.686;37.566;2024-02-16T05:36:06;23.30;;;8.58;;
22314;SDS011;11325;55.686;37.566;2024-02-16T05:38:35;17.77;;;7.53;;
22314;SDS011;11325;55.686;37.566;2024-02-16T05:41:06;20.00;;;8.63;;
22314;SDS011;11325;55.686;37.566;2024-02-16T05:43:35;17.87;;;7.95;;
22314;SDS011;11325;55.686;37.566;2024-02-16T05:46:05;16.37;;;8.13;;
22314;SDS011;11325;55.686;37.566;2024-02-16T05:48:37;15.80;;;7.87;;
22314;SDS011;11325;55.686;37.566;2024-02-16T05:51:07;17.65;;;8.05;;
22314;SDS011;11325;55.686;37.566;2024-02-16T05:53:38;23.92;;;8.05;;
22314;SDS011;11325;55.686;37.566;2024-02-16T05:56:08;20.40;;;7.65;;
22314;SDS011;11325;55.686;37.566;2024-02-16T05:58:38;15.28;;;7.40;;
22314;SDS011;11325;55.686;37.566;2024-02-16T06:01:06;20.00;;;7.58;;
22314;SDS011;11325;55.686;37.566;2024-02-16T06:03:37;26.23;;;7.58;;
22314;SDS011;11325;55.686;37.566;2024-02-16T06:06:06;16.40;;;7.42;;
22314;SDS011;11325;55.686;37.566;2024-02-16T06:08:36;21.85;;;6.53;;
22314;SDS011;11325;55.686;37.566;2024-02-16T06:11:07;17.17;;;6.87;;
22314;SDS011;11325;55.686;37.566;2024-02-16T06:13:35;16.80;;;7.12;;
22314;SDS011;11325;55.686;37.566;2024-02-16T06:16:07;17.95;;;6.83;;
22314;SDS011;11325;55.686;37.566;2024-02-16T06:18:37;19.02;;;6.55;;
22314;SDS011;11325;55.686;37.566;2024-02-16T06:21:05;23.42;;;8.85;;
22314;SDS011;11325;55.686;37.566;2024-02-16T06:23:34;14.10;;;6.20;;
22314;SDS011;11325;55.686;37.566;2024-02-16T06:26:05;16.48;;;7.05;;
22314;SDS011;11325;55.686;37.566;2024-02-16T06:28:34;24.37;;;7.70;;
22314;SDS011;11325;55.686;37.566;2024-02-16T06:31:03;16.05;;;5.92;;
22314;SDS011;11325;55.686;37.566;2024-02-16T06:33:33;16.85;;;6.55;;
22314;SDS011;11325;55.686;37.566;2024-02-16T06:36:02;13.20;;;6.50;;
22314;SDS011;11325;55.686;37.566;2024-02-16T06:38:32;18.42;;;7.47;;
22314;SDS011;11325;55.686;37.566;2024-02-16T06:41:00;17.07;;;8.40;;
22314;SDS011;11325;55.686;37.566;2024-02-16T06:43:31;13.35;;;7.08;;
22314;SDS011;11325;55.686;37.566;2024-02-16T06:46:00;14.10;;;6.40;;
22314;SDS011;11325;55.686;37.566;2024-02-16T06:48:28;17.23;;;7.08;;
22314;SDS011;11325;55.686;37.566;2024-02-16T06:50:58;24.47;;;8.03;;
22314;SDS011;11325;55.686;37.566;2024-02-16T06:53:27;16.57;;;7.42;;
22314;SDS011;11325;55.686;37.566;2024-02-16T06:55:56;14.78;;;6.90;;
22314;SDS011;11325;55.686;37.566;2024-02-16T06:58:25;18.50;;;7.83;;
22314;SDS011;11325;55.686;37.566;2024-02-16T07:00:53;18.15;;;8.00;;
22314;SDS011;11325;55.686;37.566;2024-02-16T07:03:23;19.67;;;6.53;;
22314;SDS011;11325;55.686;37.566;2024-02-16T07:05:51;21.15;;;8.10;;
22314;SDS011;11325;55.686;37.566;2024-02-16T07:08:21;14.85;;;7.60;;
22314;SDS011;11325;55.686;37.566;2024-02-16T07:10:51;18.87;;;6.95;;
22314;SDS011;11325;55.686;37.566;2024-02-16T07:13:21;15.45;;;6.80;;
22314;SDS011;11325;55.686;37.566;2024-02-16T07:15:51;11.48;;;5.72;;
22314;SDS011;11325;55.686;37.566;2024-02-16T07:18:20;18.27;;;7.70;;
22314;SDS011;11325;55.686;37.566;2024-02-16T07:20:49;16.42;;;7.62;;
22314;SDS011;11325;55.686;37.566;2024-02-16T07:23:18;11.33;;;6.62;;
22314;SDS011;11325;55.686;37.566;2024-02-16T07:25:47;20.97;;;6.65;;
22314;SDS011;11325;55.686;37.566;2024-02-16T07:28:16;17.82;;;8.43;;
22314;SDS011;11325;55.686;37.566;2024-02-16T07:30:45;25.32;;;7.30;;
22314;SDS011;11325;55.686;37.566;2024-02-16T07:33:14;13.78;;;7.42;;
22314;SDS011;11325;55.686;37.566;2024-02-16T07:35:43;15.78;;;7.90;;
22314;SDS011;11325;55.686;37.566;2024-02-16T07:38:11;19.98;;;7.97;;
22314;SDS011;11325;55.686;37.566;2024-02-16T07:40:40;23.85;;;6.83;;
22314;SDS011;11325;55.686;37.566;2024-02-16T07:43:09;19.62;;;8.28;;
22314;SDS011;11325;55.686;37.566;2024-02-16T07:45:38;18.52;;;7.60;;
22314;SDS011;11325;55.686;37.566;2024-02-16T07:48:07;15.90;;;7.62;;
22314;SDS011;11325;55.686;37.566;2024-02-16T07:50:35;20.92;;;8.50;;
22314;SDS011;11325;55.686;37.566;2024-02-16T07:53:04;22.00;;;9.25;;
22314;SDS011;11325;55.686;37.566;2024-02-16T07:55:33;17.57;;;7.60;;
22314;SDS011;11325;55.686;37.566;2024-02-16T07:58:02;20.20;;;8.03;;
22314;SDS011;11325;55.686;37.566;2024-02-16T08:00:31;18.82;;;8.05;;
22314;SDS011;11325;55.686;37.566;2024-02-16T08:02:59;18.07;;;8.20;;
22314;SDS011;11325;55.686;37.566;2024-02-16T08:05:29;28.55;;;7.47;;
22314;SDS011;11325;55.686;37.566;2024-02-16T08:07:57;22.27;;;8.58;;
22314;SDS011;11325;55.686;37.566;2024-02-16T08:10:27;25.15;;;8.10;;
22314;SDS011;11325;55.686;37.566;2024-02-16T08:12:55;17.92;;;8.18;;
22314;SDS011;11325;55.686;37.566;2024-02-16T08:15:24;14.03;;;7.20;;
22314;SDS011;11325;55.686;37.566;2024-02-16T08:17:54;19.92;;;8.93;;
22314;SDS011;11325;55.686;37.566;2024-02-16T08:20:22;15.58;;;8.03;;
22314;SDS011;11325;55.686;37.566;2024-02-16T08:22:51;22.05;;;7.85;;
22314;SDS011;11325;55.686;37.566;2024-02-16T08:25:20;20.57;;;8.35;;
22314;SDS011;11325;55.686;37.566;2024-02-16T08:27:49;20.12;;;8.60;;
22314;SDS011;11325;55.686;37.566;2024-02-16T08:30:18;18.67;;;8.63;;
22314;SDS011;11325;55.686;37.566;2024-02-16T08:32:47;19.37;;;8.28;;
22314;SDS011;11325;55.686;37.566;2024-02-16T08:35:16;25.02;;;8.88;;
22314;SDS011;11325;55.686;37.566;2024-02-16T08:37:46;18.17;;;9.35;;
22314;SDS011;11325;55.686;37.566;2024-02-16T08:40:15;19.85;;;9.08;;
22314;SDS011;11325;55.686;37.566;2024-02-16T08:42:44;20.17;;;7.95;;
22314;SDS011;11325;55.686;37.566;2024-02-16T08:45:13;18.77;;;8.13;;
22314;SDS011;11325;55.686;37.566;2024-02-16T08:47:44;21.33;;;8.13;;
22314;SDS011;11325;55.686;37.566;2024-02-16T08:50:13;21.40;;;9.83;;
22314;SDS011;11325;55.686;37.566;2024-02-16T08:52:42;24.27;;;8.63;;
22314;SDS011;11325;55.686;37.566;2024-02-16T08:55:12;21.17;;;8.85;;
22314;SDS011;11325;55.686;37.566;2024-02-16T08:57:40;20.43;;;9.73;;
22314;SDS011;11325;55.686;37.566;2024-02-16T09:00:10;28.87;;;9.88;;
22314;SDS011;11325;55.686;37.566;2024-02-16T09:02:39;28.87;;;9.63;;
22314;SDS011;11325;55.686;37.566;2024-02-16T09:05:10;19.40;;;9.25;;
22314;SDS011;11325;55.686;37.566;2024-02-16T09:07:39;28.10;;;10.63;;
22314;SDS011;11325;55.686;37.566;2024-02-16T09:10:08;23.10;;;10.70;;
22314;SDS011;11325;55.686;37.566;2024-02-16T09:12:36;20.25;;;9.23;;
22314;SDS011;11325;55.686;37.566;2024-02-16T09:15:05;21.45;;;10.40;;
22314;SDS011;11325;55.686;37.566;2024-02-16T09:17:34;22.85;;;9.75;;
22314;SDS011;11325;55.686;37.566;2024-02-16T09:20:04;22.73;;;8.88;;
22314;SDS011;11325;55.686;37.566;2024-02-16T09:22:35;29.60;;;9.23;;
22314;SDS011;11325;55.686;37.566;2024-02-16T09:25:04;26.20;;;10.08;;
22314;SDS011;11325;55.686;37.566;2024-02-16T09:27:32;24.92;;;10.15;;
22314;SDS011;11325;55.686;37.566;2024-02-16T09:30:01;33.28;;;10.20;;
22314;SDS011;11325;55.686;37.566;2024-02-16T09:32:31;23.55;;;9.63;;
22314;SDS011;11325;55.686;37.566;2024-02-16T09:34:59;27.35;;;8.58;;
22314;SDS011;11325;55.686;37.566;2024-02-16T09:37:29;29.63;;;10.23;;
22314;SDS011;11325;55.686;37.566;2024-02-16T09:39:58;24.70;;;11.22;;
22314;SDS011;11325;55.686;37.566;2024-02-16T09:42:27;22.95;;;9.58;;
22314;SDS011;11325;55.686;37.566;2024-02-16T09:44:56;27.02;;;9.78;;
22314;SDS011;11325;55.686;37.566;2024-02-16T09:47:24;22.95;;;10.60;;
22314;SDS011;11325;55.686;37.566;2024-02-16T09:49:55;24.87;;;10.75;;
22314;SDS011;11325;55.686;37.566;2024-02-16T09:52:24;24.35;;;10.45;;
22314;SDS011;11325;55.686;37.566;2024-02-16T09:54:53;27.87;;;11.35;;
22314;SDS011;11325;55.686;37.566;2024-02-16T09:57:21;24.12;;;10.63;;
22314;SDS011;11325;55.686;37.566;2024-02-16T09:59:50;27.95;;;11.18;;
22314;SDS011;11325;55.686;37.566;2024-02-16T10:02:19;29.40;;;10.25;;
22314;SDS011;11325;55.686;37.566;2024-02-16T10:04:48;24.35;;;10.30;;
22314;SDS011;11325;55.686;37.566;2024-02-16T10:07:17;29.00;;;10.10;;
22314;SDS011;11325;55.686;37.566;2024-02-16T10:09:46;26.27;;;10.55;;
22314;SDS011;11325;55.686;37.566;2024-02-16T10:12:18;23.07;;;10.05;;
22314;SDS011;11325;55.686;37.566;2024-02-16T10:14:54;18.40;;;8.55;;
22314;SDS011;11325;55.686;37.566;2024-02-16T10:17:23;33.95;;;10.05;;
22314;SDS011;11325;55.686;37.566;2024-02-16T10:19:55;27.40;;;9.68;;
22314;SDS011;11325;55.686;37.566;2024-02-16T10:22:23;25.30;;;8.58;;
22314;SDS011;11325;55.686;37.566;2024-02-16T10:24:52;22.45;;;10.00;;
22314;SDS011;11325;55.686;37.566;2024-02-16T10:27:21;25.25;;;10.25;;
22314;SDS011;11325;55.686;37.566;2024-02-16T10:29:50;27.40;;;10.93;;
22314;SDS011;11325;55.686;37.566;2024-02-16T10:32:20;33.18;;;10.58;;
22314;SDS011;11325;55.686;37.566;2024-02-16T10:34:51;24.85;;;10.68;;
22314;SDS011;11325;55.686;37.566;2024-02-16T10:37:21;26.17;;;11.28;;
22314;SDS011;11325;55.686;37.566;2024-02-16T10:39:50;24.25;;;9.55;;
22314;SDS011;11325;55.686;37.566;2024-02-16T10:42:19;24.15;;;11.28;;
22314;SDS011;11325;55.686;37.566;2024-02-16T10:44:49;22.25;;;10.38;;
22314;SDS011;11325;55.686;37.566;2024-02-16T10:47:18;22.20;;;10.35;;
22314;SDS011;11325;55.686;37.566;2024-02-16T10:49:46;23.73;;;9.93;;
22314;SDS011;11325;55.686;37.566;2024-02-16T10:52:15;27.13;;;10.98;;
22314;SDS011;11325;55.686;37.566;2024-02-16T10:54:45;26.87;;;11.48;;
22314;SDS011;11325;55.686;37.566;2024-02-16T10:57:15;31.05;;;12.05;;
22314;SDS011;11325;55.686;37.566;2024-02-16T10:59:45;19.85;;;9.13;;
22314;SDS011;11325;55.686;37.566;2024-02-16T11:02:15;22.52;;;10.32;;
22314;SDS011;11325;55.686;37.566;2024-02-16T11:04:45;30.02;;;12.33;;
22314;SDS011;11325;55.686;37.566;2024-02-16T11:07:16;27.35;;;11.00;;
22314;SDS011;11325;55.686;37.566;2024-02-16T11:09:45;27.32;;;9.95;;
22314;SDS011;11325;55.686;37.566;2024-02-16T11:12:14;21.57;;;10.88;;
22314;SDS011;11325;55.686;37.566;2024-02-16T11:14:44;25.90;;;10.55;;
22314;SDS011;11325;55.686;37.566;2024-02-16T11:17:14;31.12;;;11.68;;
22314;SDS011;11325;55.686;37.566;2024-02-16T11:19:44;28.57;;;11.35;;
22314;SDS011;11325;55.686;37.566;2024-02-16T11:22:22;29.42;;;12.93;;
22314;SDS011;11325;55.686;37.566;2024-02-16T11:24:47;28.07;;;13.08;;
22314;SDS011;11325;55.686;37.566;2024-02-16T11:27:16;26.07;;;11.05;;
22314;SDS011;11325;55.686;37.566;2024-02-16T11:29:49;31.40;;;11.93;;
22314;SDS011;11325;55.686;37.566;2024-02-16T11:32:18;32.00;;;12.63;;
22314;SDS011;11325;55.686;37.566;2024-02-16T11:34:47;27.87;;;12.07;;
22314;SDS011;11325;55.686;37.566;2024-02-16T11:37:16;36.75;;;12.20;;
22314;SDS011;11325;55.686;37.566;2024-02-16T11:39:45;26.10;;;10.43;;
22314;SDS011;11325;55.686;37.566;2024-02-16T11:42:18;25.82;;;10.82;;
22314;SDS011;11325;55.686;37.566;2024-02-16T11:44:57;27.60;;;9.70;;
22314;SDS011;11325;55.686;37.566;2024-02-16T11:47:22;29.12;;;11.08;;
22314;SDS011;11325;55.686;37.566;2024-02-16T11:50:04;25.65;;;11.57;;
22314;SDS011;11325;55.686;37.566;2024-02-16T11:52:33;26.82;;;11.08;;
22314;SDS011;11325;55.686;37.566;2024-02-16T11:55:02;33.80;;;10.72;;
22314;SDS011;11325;55.686;37.566;2024-02-16T11:57:32;22.50;;;10.65;;
22314;SDS011;11325;55.686;37.566;2024-02-16T12:00:02;30.30;;;11.70;;
22314;SDS011;11325;55.686;37.566;2024-02-16T12:02:34;23.00;;;9.60;;
22314;SDS011;11325;55.686;37.566;2024-02-16T12:05:03;27.45;;;11.78;;
22314;SDS011;11325;55.686;37.566;2024-02-16T12:07:32;21.65;;;10.70;;
22314;SDS011;11325;55.686;37.566;2024-02-16T12:10:02;26.42;;;11.68;;
22314;SDS011;11325;55.686;37.566;2024-02-16T12:12:32;24.85;;;10.40;;
22314;SDS011;11325;55.686;37.566;2024-02-16T12:15:04;21.57;;;9.45;;
22314;SDS011;11325;55.686;37.566;2024-02-16T12:17:33;25.82;;;10.23;;
22314;SDS011;11325;55.686;37.566;2024-02-16T12:20:02;28.83;;;11.65;;
22314;SDS011;11325;55.686;37.566;2024-02-16T12:22:32;26.37;;;10.85;;
22314;SDS011;11325;55.686;37.566;2024-02-16T12:25:00;28.95;;;12.73;;
22314;SDS011;11325;55.686;37.566;2024-02-16T12:27:29;28.42;;;11.73;;
22314;SDS011;11325;55.686;37.566;2024-02-16T12:29:58;33.15;;;11.88;;
22314;SDS011;11325;55.686;37.566;2024-02-16T12:32:26;24.63;;;10.78;;
22314;SDS011;11325;55.686;37.566;2024-02-16T12:34:55;20.75;;;10.88;;
22314;SDS011;11325;55.686;37.566;2024-02-16T12:37:25;23.50;;;10.48;;
22314;SDS011;11325;55.686;37.566;2024-02-16T12:39:53;27.17;;;10.25;;
22314;SDS011;11325;55.686;37.566;2024-02-16T12:42:22;22.60;;;10.13;;
22314;SDS011;11325;55.686;37.566;2024-02-16T12:44:52;36.75;;;11.35;;
22314;SDS011;11325;55.686;37.566;2024-02-16T12:47:20;26.50;;;11.15;;
22314;SDS011;11325;55.686;37.566;2024-02-16T12:49:49;26.25;;;10.65;;
22314;SDS011;11325;55.686;37.566;2024-02-16T12:52:19;21.75;;;10.35;;
22314;SDS011;11325;55.686;37.566;2024-02-16T12:54:50;27.13;;;10.90;;
22314;SDS011;11325;55.686;37.566;2024-02-16T12:57:19;19.02;;;9.45;;
22314;SDS011;11325;55.686;37.566;2024-02-16T12:59:47;24.92;;;11.03;;
22314;SDS011;11325;55.686;37.566;2024-02-16T13:02:16;25.15;;;9.85;;
22314;SDS011;11325;55.686;37.566;2024-02-16T13:04:45;26.27;;;10.50;;
22314;SDS011;11325;55.686;37.566;2024-02-16T13:07:14;30.90;;;10.50;;
22314;SDS011;11325;55.686;37.566;2024-02-16T13:09:42;26.65;;;10.82;;
22314;SDS011;11325;55.686;37.566;2024-02-16T13:12:11;30.68;;;10.58;;
22314;SDS011;11325;55.686;37.566;2024-02-16T13:14:43;27.45;;;11.50;;
22314;SDS011;11325;55.686;37.566;2024-02-16T13:17:11;42.33;;;10.40;;
22314;SDS011;11325;55.686;37.566;2024-02-16T13:19:40;22.50;;;10.58;;
22314;SDS011;11325;55.686;37.566;2024-02-16T13:22:09;28.67;;;10.53;;
22314;SDS011;11325;55.686;37.566;2024-02-16T13:24:37;35.95;;;10.72;;
22314;SDS011;11325;55.686;37.566;2024-02-16T13:27:06;22.40;;;10.20;;
22314;SDS011;11325;55.686;37.566;2024-02-16T13:29:35;29.87;;;11.30;;
22314;SDS011;11325;55.686;37.566;2024-02-16T13:32:03;38.58;;;11.18;;
22314;SDS011;11325;55.686;37.566;2024-02-16T13:34:32;25.08;;;10.55;;
22314;SDS011;11325;55.686;37.566;2024-02-16T13:37:01;22.50;;;10.63;;
22314;SDS011;11325;55.686;37.566;2024-02-16T13:39:30;18.87;;;9.73;;
22314;SDS011;11325;55.686;37.566;2024-02-16T13:41:59;22.13;;;10.23;;
22314;SDS011;11325;55.686;37.566;2024-02-16T13:44:28;22.52;;;11.05;;
22314;SDS011;11325;55.686;37.566;2024-02-16T13:46:56;22.73;;;9.15;;
22314;SDS011;11325;55.686;37.566;2024-02-16T13:49:25;20.02;;;8.93;;
22314;SDS011;11325;55.686;37.566;2024-02-16T13:51:54;21.42;;;9.98;;
22314;SDS011;11325;55.686;37.566;2024-02-16T13:54:25;24.43;;;10.53;;
22314;SDS011;11325;55.686;37.566;2024-02-16T13:56:53;22.48;;;11.20;;
22314;SDS011;11325;55.686;37.566;2024-02-16T13:59:22;19.42;;;9.03;;
22314;SDS011;11325;55.686;37.566;2024-02-16T14:01:51;24.47;;;9.90;;
22314;SDS011;11325;55.686;37.566;2024-02-16T14:04:19;22.95;;;9.98;;
22314;SDS011;11325;55.686;37.566;2024-02-16T14:06:50;28.27;;;10.65;;
22314;SDS011;11325;55.686;37.566;2024-02-16T14:09:20;28.25;;;10.63;;
22314;SDS011;11325;55.686;37.566;2024-02-16T14:11:48;24.07;;;10.08;;
22314;SDS011;11325;55.686;37.566;2024-02-16T14:14:17;26.65;;;9.65;;
22314;SDS011;11325;55.686;37.566;2024-02-16T14:16:46;24.50;;;9.85;;
22314;SDS011;11325;55.686;37.566;2024-02-16T14:19:14;25.52;;;9.68;;
22314;SDS011;11325;55.686;37.566;2024-02-16T14:21:43;27.10;;;10.75;;
22314;SDS011;11325;55.686;37.566;2024-02-16T14:24:14;27.90;;;10.48;;
22314;SDS011;11325;55.686;37.566;2024-02-16T14:26:44;25.23;;;10.30;;
22314;SDS011;11325;55.686;37.566;2024-02-16T14:29:14;37.78;;;9.83;;